sensor_id;sensor_type;location;lat;lon;timestamp;pressure;altitude;pressure_sealevel;temperature;humidity
38054;BME280;23859;50.672;7.164;2023-04-01T00:00:52;59361.00;;;12.33;82.31
38054;BME280;23859;50.672;7.164;2023-04-01T00:03:20;59316.69;;;11.89;83.11
38054;BME280;23859;50.672;7.164;2023-04-01T00:05:46;59367.59;;;12.37;82.90
38054;BME280;23859;50.672;7.164;2023-04-01T00:08:13;59343.59;;;12.18;84.62
38054;BME280;23859;50.672;7.164;2023-04-01T00:10:39;59340.63;;;12.15;85.59
38054;BME280;23859;50.672;7.164;2023-04-01T00:13:06;59335.72;;;12.10;84.84
38054;BME280;23859;50.672;7.164;2023-04-01T00:15:33;59336.06;;;12.05;85.76
38054;BME280;23859;50.672;7.164;2023-04-01T00:17:59;59346.56;;;12.13;85.17
38054;BME280;23859;50.672;7.164;2023-04-01T00:20:25;59344.56;;;12.19;85.65
38054;BME280;23859;50.672;7.164;2023-04-01T00:22:51;59354.78;;;12.24;85.58
38054;BME280;23859;50.672;7.164;2023-04-01T00:25:17;59347.88;;;12.17;85.50
38054;BME280;23859;50.672;7.164;2023-04-01T00:27:44;59355.44;;;12.22;85.46
38054;BME280;23859;50.672;7.164;2023-04-01T00:30:10;59351.81;;;12.21;84.99
38054;BME280;23859;50.672;7.164;2023-04-01T00:32:37;59336.19;;;12.11;85.92
38054;BME280;23859;50.672;7.164;2023-04-01T00:35:04;59318.13;;;11.98;86.48
38054;BME280;23859;50.672;7.164;2023-04-01T00:37:30;59340.31;;;12.12;85.36
38054;BME280;23859;50.672;7.164;2023-04-01T00:39:56;59337.03;;;12.06;85.89
38054;BME280;23859;50.672;7.164;2023-04-01T00:42:22;59343.28;;;12.15;85.73
38054;BME280;23859;50.672;7.164;2023-04-01T00:44:51;59342.94;;;12.12;85.21
38054;BME280;23859;50.672;7.164;2023-04-01T00:47:18;59346.56;;;12.21;84.26
38054;BME280;23859;50.672;7.164;2023-04-01T00:49:48;59347.56;;;12.14;85.15
38054;BME280;23859;50.672;7.164;2023-04-01T00:52:19;59347.22;;;12.19;85.07
38054;BME280;23859;50.672;7.164;2023-04-01T00:54:50;59353.78;;;12.23;84.78
38054;BME280;23859;50.672;7.164;2023-04-01T00:57:29;59331.75;;;12.06;85.34
38054;BME280;23859;50.672;7.164;2023-04-01T00:59:56;59334.09;;;12.03;85.51
38054;BME280;23859;50.672;7.164;2023-04-01T01:02:24;59331.44;;;12.03;85.57
38054;BME280;23859;50.672;7.164;2023-04-01T01:04:50;59327.81;;;12.10;85.33
38054;BME280;23859;50.672;7.164;2023-04-01T01:18:43;59321.59;;;11.94;87.95
38054;BME280;23859;50.672;7.164;2023-04-01T01:36:12;59329.28;;;12.04;87.57
38054;BME280;23859;50.672;7.164;2023-04-01T01:38:33;59316.69;;;11.89;88.23
38054;BME280;23859;50.672;7.164;2023-04-01T01:41:00;59315.38;;;11.85;88.02
38054;BME280;23859;50.672;7.164;2023-04-01T01:43:32;59308.16;;;11.75;88.36
38054;BME280;23859;50.672;7.164;2023-04-01T01:46:02;59300.91;;;11.73;88.05
38054;BME280;23859;50.672;7.164;2023-04-01T01:48:33;59324.53;;;11.96;86.63
38054;BME280;23859;50.672;7.164;2023-04-01T01:51:00;59313.72;;;11.86;86.32
38054;BME280;23859;50.672;7.164;2023-04-01T01:53:27;59328.00;;;12.00;85.46
38054;BME280;23859;50.672;7.164;2023-04-01T01:55:53;59320.13;;;11.92;86.36
38054;BME280;23859;50.672;7.164;2023-04-01T02:00:55;59311.56;;;11.86;86.41
38054;BME280;23859;50.672;7.164;2023-04-01T02:03:23;59317.34;;;11.87;86.81
38054;BME280;23859;50.672;7.164;2023-04-01T02:05:52;59318.63;;;11.91;87.17
38054;BME280;23859;50.672;7.164;2023-04-01T02:08:26;59298.28;;;11.73;87.82
38054;BME280;23859;50.672;7.164;2023-04-01T02:11:01;59296.00;;;11.68;88.35
38054;BME280;23859;50.672;7.164;2023-04-01T02:13:39;59295.66;;;11.73;87.78
38054;BME280;23859;50.672;7.164;2023-04-01T02:16:18;59317.31;;;11.95;87.24
38054;BME280;23859;50.672;7.164;2023-04-01T02:18:49;59301.22;;;11.76;87.79
38054;BME280;23859;50.672;7.164;2023-04-01T02:21:18;59312.41;;;11.82;87.68
38054;BME280;23859;50.672;7.164;2023-04-01T02:23:47;59312.06;;;11.87;86.83
38054;BME280;23859;50.672;7.164;2023-04-01T02:26:13;59311.41;;;11.81;86.88
38054;BME280;23859;50.672;7.164;2023-04-01T02:28:41;59282.84;;;11.60;87.17
38054;BME280;23859;50.672;7.164;2023-04-01T02:31:10;59312.06;;;11.87;86.88
38054;BME280;23859;50.672;7.164;2023-04-01T02:33:38;59329.34;;;11.96;86.50
38054;BME280;23859;50.672;7.164;2023-04-01T02:36:06;59313.53;;;11.88;87.12
38054;BME280;23859;50.672;7.164;2023-04-01T02:38:36;59302.56;;;11.72;89.41
38054;BME280;23859;50.672;7.164;2023-04-01T02:41:03;59274.78;;;11.46;92.31
38054;BME280;23859;50.672;7.164;2023-04-01T02:43:30;59271.38;;;11.35;92.81
38054;BME280;23859;50.672;7.164;2023-04-01T02:45:57;59232.28;;;11.06;97.04
38054;BME280;23859;50.672;7.164;2023-04-01T02:48:23;59229.03;;;11.00;98.48
38054;BME280;23859;50.672;7.164;2023-04-01T02:50:49;59222.16;;;10.93;98.83
38054;BME280;23859;50.672;7.164;2023-04-01T02:53:16;59210.16;;;10.84;98.26
38054;BME280;23859;50.672;7.164;2023-04-01T02:55:42;59214.94;;;10.83;99.85
38054;BME280;23859;50.672;7.164;2023-04-01T02:58:08;59214.94;;;10.83;99.15
38054;BME280;23859;50.672;7.164;2023-04-01T03:00:35;59217.53;;;10.91;98.37
38054;BME280;23859;50.672;7.164;2023-04-01T03:03:01;59204.28;;;10.70;100.00
38054;BME280;23859;50.672;7.164;2023-04-01T03:05:28;59195.09;;;10.66;100.00
38054;BME280;23859;50.672;7.164;2023-04-01T03:07:54;59186.72;;;10.58;100.00
38054;BME280;23859;50.672;7.164;2023-04-01T03:10:20;59177.22;;;10.51;100.00
38054;BME280;23859;50.672;7.164;2023-04-01T03:12:46;59181.47;;;10.58;100.00
38054;BME280;23859;50.672;7.164;2023-04-01T03:15:14;59178.53;;;10.47;100.00
38054;BME280;23859;50.672;7.164;2023-04-01T03:17:41;59181.50;;;10.50;100.00
38054;BME280;23859;50.672;7.164;2023-04-01T03:20:08;59167.38;;;10.41;100.00
38054;BME280;23859;50.672;7.164;2023-04-01T03:22:34;59169.03;;;10.40;100.00
38054;BME280;23859;50.672;7.164;2023-04-01T03:25:01;59170.66;;;10.39;100.00
38054;BME280;23859;50.672;7.164;2023-04-01T03:27:28;59166.91;;;10.32;100.00
38054;BME280;23859;50.672;7.164;2023-04-01T03:29:54;59159.50;;;10.33;100.00
38054;BME280;23859;50.672;7.164;2023-04-01T03:32:20;59160.00;;;10.33;100.00
38054;BME280;23859;50.672;7.164;2023-04-01T03:34:46;59161.31;;;10.29;100.00
38054;BME280;23859;50.672;7.164;2023-04-01T03:37:13;59159.19;;;10.30;100.00
38054;BME280;23859;50.672;7.164;2023-04-01T03:39:39;59162.47;;;10.28;100.00
38054;BME280;23859;50.672;7.164;2023-04-01T03:42:05;59174.25;;;10.48;100.00
38054;BME280;23859;50.672;7.164;2023-04-01T03:44:33;59158.53;;;10.32;100.00
38054;BME280;23859;50.672;7.164;2023-04-01T03:46:59;59171.97;;;10.43;100.00
38054;BME280;23859;50.672;7.164;2023-04-01T03:49:25;59170.84;;;10.36;100.00
38054;BME280;23859;50.672;7.164;2023-04-01T03:51:52;59181.97;;;10.50;100.00
38054;BME280;23859;50.672;7.164;2023-04-01T03:54:18;59175.25;;;10.49;100.00
38054;BME280;23859;50.672;7.164;2023-04-01T03:56:46;59179.50;;;10.48;100.00
38054;BME280;23859;50.672;7.164;2023-04-01T03:59:12;59191.31;;;10.60;100.00
38054;BME280;23859;50.672;7.164;2023-04-01T04:01:38;59180.16;;;10.54;100.00
38054;BME280;23859;50.672;7.164;2023-04-01T04:04:04;59189.84;;;10.58;100.00
38054;BME280;23859;50.672;7.164;2023-04-01T04:06:32;59190.66;;;10.62;100.00
38054;BME280;23859;50.672;7.164;2023-04-01T04:08:58;59193.59;;;10.72;100.00
38054;BME280;23859;50.672;7.164;2023-04-01T04:11:24;59202.16;;;10.70;100.00
38054;BME280;23859;50.672;7.164;2023-04-01T04:13:51;59212.47;;;10.81;98.24
38054;BME280;23859;50.672;7.164;2023-04-01T04:16:18;59225.56;;;10.97;97.73
38054;BME280;23859;50.672;7.164;2023-04-01T04:18:44;59223.28;;;10.92;97.16
38054;BME280;23859;50.672;7.164;2023-04-01T04:21:14;59231.00;;;11.02;95.59
38054;BME280;23859;50.672;7.164;2023-04-01T04:23:41;59234.44;;;11.06;95.73
38054;BME280;23859;50.672;7.164;2023-04-01T04:26:10;59241.19;;;11.07;96.57
38054;BME280;23859;50.672;7.164;2023-04-01T04:28:36;59250.69;;;11.22;94.60
38054;BME280;23859;50.672;7.164;2023-04-01T04:31:02;59246.44;;;11.15;95.05
38054;BME280;23859;50.672;7.164;2023-04-01T04:33:30;59246.09;;;11.20;94.17
38054;BME280;23859;50.672;7.164;2023-04-01T04:35:57;59263.16;;;11.32;92.27
38054;BME280;23859;50.672;7.164;2023-04-01T04:38:23;59263.16;;;11.32;93.05
38054;BME280;23859;50.672;7.164;2023-04-01T04:40:50;59250.03;;;11.24;92.60
38054;BME280;23859;50.672;7.164;2023-04-01T04:43:17;59251.97;;;11.26;92.52
38054;BME280;23859;50.672;7.164;2023-04-01T04:45:43;59248.03;;;11.22;94.11
38054;BME280;23859;50.672;7.164;2023-04-01T04:48:11;59265.13;;;11.34;92.98
38054;BME280;23859;50.672;7.164;2023-04-01T04:50:45;59268.75;;;11.35;90.09
38054;BME280;23859;50.672;7.164;2023-04-01T04:53:14;59256.25;;;11.33;91.97
38054;BME280;23859;50.672;7.164;2023-04-01T04:55:48;59251.34;;;11.20;93.21
38054;BME280;23859;50.672;7.164;2023-04-01T04:58:15;59250.38;;;11.19;94.15
38054;BME280;23859;50.672;7.164;2023-04-01T05:00:41;59224.59;;;10.96;97.79
38054;BME280;23859;50.672;7.164;2023-04-01T05:03:07;59215.75;;;10.87;97.75
38054;BME280;23859;50.672;7.164;2023-04-01T05:05:33;59198.84;;;10.72;98.72
38054;BME280;23859;50.672;7.164;2023-04-01T05:08:00;59196.59;;;10.60;100.00
38054;BME280;23859;50.672;7.164;2023-04-01T05:10:26;59183.28;;;10.54;100.00
38054;BME280;23859;50.672;7.164;2023-04-01T05:12:52;59180.81;;;10.52;100.00
38054;BME280;23859;50.672;7.164;2023-04-01T05:15:18;59179.00;;;10.55;100.00
38054;BME280;23859;50.672;7.164;2023-04-01T05:17:44;59047.47;;;9.20;100.00
38054;BME280;23859;50.672;7.164;2023-04-01T05:20:12;59170.81;;;10.44;100.00
38054;BME280;23859;50.672;7.164;2023-04-01T05:22:39;59169.69;;;10.38;100.00
38054;BME280;23859;50.672;7.164;2023-04-01T05:25:06;59167.22;;;10.35;100.00
38054;BME280;23859;50.672;7.164;2023-04-01T05:27:32;59165.41;;;10.39;100.00
38054;BME280;23859;50.672;7.164;2023-04-01T05:29:58;59165.75;;;10.34;100.00
38054;BME280;23859;50.672;7.164;2023-04-01T05:32:24;59180.19;;;10.46;100.00
38054;BME280;23859;50.672;7.164;2023-04-01T05:34:51;59170.34;;;10.36;100.00
38054;BME280;23859;50.672;7.164;2023-04-01T05:37:18;59172.63;;;10.41;100.00
38054;BME280;23859;50.672;7.164;2023-04-01T05:39:44;59121.81;;;9.92;100.00
38054;BME280;23859;50.672;7.164;2023-04-01T05:42:10;59178.84;;;10.50;100.00
38054;BME280;23859;50.672;7.164;2023-04-01T05:44:36;59175.91;;;10.47;100.00
38054;BME280;23859;50.672;7.164;2023-04-01T05:47:03;59181.81;;;10.53;100.00
38054;BME280;23859;50.672;7.164;2023-04-01T05:49:30;59181.16;;;10.55;100.00
38054;BME280;23859;50.672;7.164;2023-04-01T05:51:56;59187.41;;;10.56;100.00
38054;BME280;23859;50.672;7.164;2023-04-01T05:54:23;59181.50;;;10.50;100.00
38054;BME280;23859;50.672;7.164;2023-04-01T05:56:49;59183.78;;;10.55;100.00
38054;BME280;23859;50.672;7.164;2023-04-01T05:59:15;59177.84;;;10.57;100.00
38054;BME280;23859;50.672;7.164;2023-04-01T06:01:42;59187.72;;;10.59;100.00
38054;BME280;23859;50.672;7.164;2023-04-01T06:04:15;59187.06;;;10.61;100.00
38054;BME280;23859;50.672;7.164;2023-04-01T06:06:41;59189.84;;;10.58;100.00
38054;BME280;23859;50.672;7.164;2023-04-01T06:09:14;59190.97;;;10.64;100.00
38054;BME280;23859;50.672;7.164;2023-04-01T06:12:22;59191.63;;;10.62;100.00
38054;BME280;23859;50.672;7.164;2023-04-01T06:18:11;59204.13;;;10.72;100.00
38054;BME280;23859;50.672;7.164;2023-04-01T06:20:58;59206.56;;;10.75;100.00
38054;BME280;23859;50.672;7.164;2023-04-01T06:34:30;59223.78;;;10.92;100.00
38054;BME280;23859;50.672;7.164;2023-04-01T06:42:34;59218.69;;;10.90;100.00
38054;BME280;23859;50.672;7.164;2023-04-01T06:50:43;59237.06;;;11.06;100.00
38054;BME280;23859;50.672;7.164;2023-04-01T06:53:30;59234.63;;;11.03;100.00
38054;BME280;23859;50.672;7.164;2023-04-01T06:56:14;59241.50;;;11.10;100.00
38054;BME280;23859;50.672;7.164;2023-04-01T06:58:53;59241.00;;;11.18;100.00
38054;BME280;23859;50.672;7.164;2023-04-01T07:04:11;59259.56;;;11.31;100.00
38054;BME280;23859;50.672;7.164;2023-04-01T07:09:16;59268.06;;;11.37;100.00
38054;BME280;23859;50.672;7.164;2023-04-01T07:11:45;59269.38;;;11.41;100.00
38054;BME280;23859;50.672;7.164;2023-04-01T07:14:21;59273.47;;;11.50;100.00
38054;BME280;23859;50.672;7.164;2023-04-01T07:17:00;59283.50;;;11.58;100.00
38054;BME280;23859;50.672;7.164;2023-04-01T07:22:31;59315.19;;;11.87;100.00
38054;BME280;23859;50.672;7.164;2023-04-01T07:25:07;59327.81;;;12.02;99.58
38054;BME280;23859;50.672;7.164;2023-04-01T07:27:37;59341.94;;;12.19;99.91
38054;BME280;23859;50.672;7.164;2023-04-01T07:30:06;59350.13;;;12.30;100.00
38054;BME280;23859;50.672;7.164;2023-04-01T07:33:12;59362.34;;;12.29;98.55
38054;BME280;23859;50.672;7.164;2023-04-01T07:35:56;59325.88;;;12.00;100.00
38054;BME280;23859;50.672;7.164;2023-04-01T07:38:46;59314.03;;;11.89;100.00
38054;BME280;23859;50.672;7.164;2023-04-01T07:44:05;59335.56;;;12.05;99.06
38054;BME280;23859;50.672;7.164;2023-04-01T07:54:52;59340.16;;;12.07;100.00
38054;BME280;23859;50.672;7.164;2023-04-01T07:57:34;59309.47;;;11.79;100.00
38054;BME280;23859;50.672;7.164;2023-04-01T08:05:29;59321.44;;;11.88;100.00
38054;BME280;23859;50.672;7.164;2023-04-01T08:07:59;59321.59;;;11.94;100.00
38054;BME280;23859;50.672;7.164;2023-04-01T08:10:37;59329.97;;;12.02;100.00
38054;BME280;23859;50.672;7.164;2023-04-01T08:21:52;59354.94;;;12.30;100.00
38054;BME280;23859;50.672;7.164;2023-04-01T08:27:00;59375.97;;;12.46;100.00
38054;BME280;23859;50.672;7.164;2023-04-01T08:29:42;59389.91;;;12.65;99.98
38054;BME280;23859;50.672;7.164;2023-04-01T08:32:35;59418.22;;;12.91;96.63
38054;BME280;23859;50.672;7.164;2023-04-01T08:35:30;59422.63;;;12.95;96.47
38054;BME280;23859;50.672;7.164;2023-04-01T08:37:58;59429.38;;;13.05;95.37
38054;BME280;23859;50.672;7.164;2023-04-01T08:43:48;59430.00;;;13.11;95.91
38054;BME280;23859;50.672;7.164;2023-04-01T08:57:22;59426.25;;;12.96;98.26
38054;BME280;23859;50.672;7.164;2023-04-01T09:00:10;59424.13;;;12.97;98.78
38054;BME280;23859;50.672;7.164;2023-04-01T09:03:21;59420.84;;;12.91;98.39
38054;BME280;23859;50.672;7.164;2023-04-01T09:06:23;59408.31;;;12.81;99.64
38054;BME280;23859;50.672;7.164;2023-04-01T09:09:19;59407.00;;;12.77;98.61
38054;BME280;23859;50.672;7.164;2023-04-01T09:12:07;59426.25;;;12.96;97.39
38054;BME280;23859;50.672;7.164;2023-04-01T09:25:45;59487.56;;;13.63;95.32
38054;BME280;23859;50.672;7.164;2023-04-01T09:44:34;59441.06;;;13.11;97.83
38054;BME280;23859;50.672;7.164;2023-04-01T09:47:13;59447.31;;;13.20;96.94
38054;BME280;23859;50.672;7.164;2023-04-01T09:50:32;59429.19;;;13.07;91.94
38054;BME280;23859;50.672;7.164;2023-04-01T09:53:20;59437.94;;;13.11;95.07
38054;BME280;23859;50.672;7.164;2023-04-01T09:56:18;59444.47;;;13.23;94.84
38054;BME280;23859;50.672;7.164;2023-04-01T10:10:28;59471.78;;;13.47;92.44
38054;BME280;23859;50.672;7.164;2023-04-01T10:13:24;59489.72;;;13.63;93.49
38054;BME280;23859;50.672;7.164;2023-04-01T10:38:09;59548.78;;;14.25;89.38
38054;BME280;23859;50.672;7.164;2023-04-01T10:44:25;59629.00;;;15.03;86.93
38054;BME280;23859;50.672;7.164;2023-04-01T10:47:24;59663.91;;;15.40;88.44
38054;BME280;23859;50.672;7.164;2023-04-01T10:58:36;59651.88;;;15.31;83.06
38054;BME280;23859;50.672;7.164;2023-04-01T11:07:22;59605.09;;;14.81;86.95
38054;BME280;23859;50.672;7.164;2023-04-01T11:19:03;59520.94;;;13.99;94.23
38054;BME280;23859;50.672;7.164;2023-04-01T11:21:46;59537.28;;;14.08;92.30
38054;BME280;23859;50.672;7.164;2023-04-01T11:33:00;59507.00;;;13.80;100.00
38054;BME280;23859;50.672;7.164;2023-04-01T11:38:56;59506.81;;;13.83;94.55
38054;BME280;23859;50.672;7.164;2023-04-01T11:41:43;59539.22;;;14.18;90.33
38054;BME280;23859;50.672;7.164;2023-04-01T11:44:20;59556.22;;;14.24;91.15
38054;BME280;23859;50.672;7.164;2023-04-01T11:47:13;59523.91;;;14.02;88.61
38054;BME280;23859;50.672;7.164;2023-04-01T12:03:43;59664.75;;;15.36;89.00
38054;BME280;23859;50.672;7.164;2023-04-01T12:06:25;59645.59;;;15.22;88.40
38054;BME280;23859;50.672;7.164;2023-04-01T12:12:14;59586.50;;;14.60;90.79
38054;BME280;23859;50.672;7.164;2023-04-01T12:18:10;59614.66;;;14.88;88.43
38054;BME280;23859;50.672;7.164;2023-04-01T12:21:22;59576.44;;;14.53;85.32
38054;BME280;23859;50.672;7.164;2023-04-01T12:24:22;59606.09;;;14.74;86.43
38054;BME280;23859;50.672;7.164;2023-04-01T12:32:35;59610.06;;;14.78;84.99
38054;BME280;23859;50.672;7.164;2023-04-01T12:35:15;59598.97;;;14.78;84.65
38054;BME280;23859;50.672;7.164;2023-04-01T12:40:37;59619.59;;;14.93;85.33
38054;BME280;23859;50.672;7.164;2023-04-01T12:46:08;59642.63;;;15.19;86.50
38054;BME280;23859;50.672;7.164;2023-04-01T12:51:50;59564.44;;;14.35;93.36
38054;BME280;23859;50.672;7.164;2023-04-01T12:57:21;59483.16;;;13.51;98.49
38054;BME280;23859;50.672;7.164;2023-04-01T13:00:12;59470.66;;;13.41;100.00
38054;BME280;23859;50.672;7.164;2023-04-01T13:03:03;59444.50;;;13.15;100.00
38054;BME280;23859;50.672;7.164;2023-04-01T13:08:41;59443.03;;;13.13;100.00
38054;BME280;23859;50.672;7.164;2023-04-01T13:14:04;59433.97;;;13.07;100.00
38054;BME280;23859;50.672;7.164;2023-04-01T13:16:48;59442.00;;;13.20;100.00
38054;BME280;23859;50.672;7.164;2023-04-01T13:19:25;59448.78;;;13.22;100.00
38054;BME280;23859;50.672;7.164;2023-04-01T13:22:19;59459.00;;;13.27;100.00
38054;BME280;23859;50.672;7.164;2023-04-01T13:25:06;59456.00;;;13.31;100.00
38054;BME280;23859;50.672;7.164;2023-04-01T13:28:21;59460.13;;;13.33;100.00
38054;BME280;23859;50.672;7.164;2023-04-01T13:33:46;59479.53;;;13.50;100.00
38054;BME280;23859;50.672;7.164;2023-04-01T13:36:37;59408.31;;;12.81;99.93
38054;BME280;23859;50.672;7.164;2023-04-01T13:42:14;59512.75;;;13.81;100.00
38054;BME280;23859;50.672;7.164;2023-04-01T13:45:23;59539.91;;;14.16;97.33
38054;BME280;23859;50.672;7.164;2023-04-01T13:50:46;59587.34;;;14.56;95.62
38054;BME280;23859;50.672;7.164;2023-04-01T13:53:49;59623.69;;;15.03;95.46
38054;BME280;23859;50.672;7.164;2023-04-01T14:07:56;59600.50;;;14.71;91.12
38054;BME280;23859;50.672;7.164;2023-04-01T14:11:06;59586.50;;;14.60;97.54
38054;BME280;23859;50.672;7.164;2023-04-01T14:16:45;59779.16;;;16.56;87.62
38054;BME280;23859;50.672;7.164;2023-04-01T14:22:38;59912.78;;;17.85;81.81
38054;BME280;23859;50.672;7.164;2023-04-01T14:33:51;59705.25;;;15.85;85.31
38054;BME280;23859;50.672;7.164;2023-04-01T14:39:26;59678.75;;;15.55;85.47
38054;BME280;23859;50.672;7.164;2023-04-01T14:45:24;59688.81;;;15.63;84.93
38054;BME280;23859;50.672;7.164;2023-04-01T14:51:48;59678.25;;;15.55;86.49
38054;BME280;23859;50.672;7.164;2023-04-01T14:56:44;59657.16;;;15.31;85.55
38054;BME280;23859;50.672;7.164;2023-04-01T15:04:44;59594.88;;;14.68;88.50
38054;BME280;23859;50.672;7.164;2023-04-01T15:13:15;59640.66;;;15.17;86.14
38054;BME280;23859;50.672;7.164;2023-04-01T15:18:39;59622.19;;;15.01;85.86
38054;BME280;23859;50.672;7.164;2023-04-01T15:21:25;59590.63;;;14.62;83.10
38054;BME280;23859;50.672;7.164;2023-04-01T15:24:10;59584.34;;;14.61;85.76
38054;BME280;23859;50.672;7.164;2023-04-01T15:35:03;59510.91;;;13.92;93.09
38054;BME280;23859;50.672;7.164;2023-04-01T15:42:53;59530.00;;;14.06;93.58
38054;BME280;23859;50.672;7.164;2023-04-01T15:51:09;59575.81;;;14.47;91.71
38054;BME280;23859;50.672;7.164;2023-04-01T15:53:49;59555.69;;;14.32;90.06
38054;BME280;23859;50.672;7.164;2023-04-01T16:04:41;59460.44;;;13.36;99.71
38054;BME280;23859;50.672;7.164;2023-04-01T16:07:30;59454.69;;;13.28;100.00
38054;BME280;23859;50.672;7.164;2023-04-01T16:16:04;59420.53;;;12.88;100.00
38054;BME280;23859;50.672;7.164;2023-04-01T16:21:53;59394.84;;;12.70;100.00
38054;BME280;23859;50.672;7.164;2023-04-01T16:24:54;59416.22;;;12.89;100.00
38054;BME280;23859;50.672;7.164;2023-04-01T16:33:20;59391.25;;;12.61;100.00
38054;BME280;23859;50.672;7.164;2023-04-01T16:35:54;59406.69;;;12.74;100.00
38054;BME280;23859;50.672;7.164;2023-04-01T16:38:36;59416.72;;;12.89;100.00
38054;BME280;23859;50.672;7.164;2023-04-01T16:41:19;59414.25;;;12.87;100.00
38054;BME280;23859;50.672;7.164;2023-04-01T16:43:56;59415.56;;;12.91;100.00
38054;BME280;23859;50.672;7.164;2023-04-01T16:51:44;59414.56;;;12.90;100.00
38054;BME280;23859;50.672;7.164;2023-04-01T16:57:01;59417.53;;;12.93;100.00
38054;BME280;23859;50.672;7.164;2023-04-01T16:59:36;59361.16;;;12.39;100.00
38054;BME280;23859;50.672;7.164;2023-04-01T17:02:04;59412.78;;;12.77;100.00
38054;BME280;23859;50.672;7.164;2023-04-01T17:10:42;59404.06;;;12.74;100.00
38054;BME280;23859;50.672;7.164;2023-04-01T17:13:29;59420.00;;;12.95;100.00
38054;BME280;23859;50.672;7.164;2023-04-01T17:18:58;59384.69;;;12.49;100.00
38054;BME280;23859;50.672;7.164;2023-04-01T17:27:30;59378.91;;;12.57;100.00
38054;BME280;23859;50.672;7.164;2023-04-01T17:40:45;59348.19;;;12.20;100.00
38054;BME280;23859;50.672;7.164;2023-04-01T17:43:38;59342.59;;;12.17;100.00
38054;BME280;23859;50.672;7.164;2023-04-01T17:46:35;59333.44;;;12.05;100.00
38054;BME280;23859;50.672;7.164;2023-04-01T17:49:26;59334.56;;;12.04;100.00
38054;BME280;23859;50.672;7.164;2023-04-01T17:52:15;59325.88;;;12.00;100.00
38054;BME280;23859;50.672;7.164;2023-04-01T17:58:29;59314.03;;;11.89;100.00
38054;BME280;23859;50.672;7.164;2023-04-01T18:01:01;59320.78;;;11.90;100.00
38054;BME280;23859;50.672;7.164;2023-04-01T18:03:59;59308.13;;;11.83;100.00
38054;BME280;23859;50.672;7.164;2023-04-01T18:09:28;59306.16;;;11.81;100.00
38054;BME280;23859;50.672;7.164;2023-04-01T18:17:47;59287.44;;;11.62;100.00
38054;BME280;23859;50.672;7.164;2023-04-01T18:20:52;59273.63;;;11.48;100.00
38054;BME280;23859;50.672;7.164;2023-04-01T18:23:27;59273.50;;;11.42;100.00
38054;BME280;23859;50.672;7.164;2023-04-01T18:26:06;59284.84;;;11.54;100.00
38054;BME280;23859;50.672;7.164;2023-04-01T18:28:38;59275.13;;;11.49;100.00
38054;BME280;23859;50.672;7.164;2023-04-01T18:31:13;59276.28;;;11.48;100.00
38054;BME280;23859;50.672;7.164;2023-04-01T18:34:08;59252.78;;;11.29;100.00
38054;BME280;23859;50.672;7.164;2023-04-01T18:36:49;59249.19;;;11.28;100.00
38054;BME280;23859;50.672;7.164;2023-04-01T18:39:33;59257.56;;;11.29;100.00
38054;BME280;23859;50.672;7.164;2023-04-01T18:42:16;59268.88;;;11.40;100.00
38054;BME280;23859;50.672;7.164;2023-04-01T18:50:47;59269.22;;;11.35;100.00
38054;BME280;23859;50.672;7.164;2023-04-01T18:56:05;59274.31;;;11.46;100.00
38054;BME280;23859;50.672;7.164;2023-04-01T18:58:49;59248.84;;;11.26;100.00
38054;BME280;23859;50.672;7.164;2023-04-01T19:01:43;59251.00;;;11.25;100.00
38054;BME280;23859;50.672;7.164;2023-04-01T19:04:50;59259.22;;;11.28;100.00
38054;BME280;23859;50.672;7.164;2023-04-01T19:07:39;59273.00;;;11.42;100.00
38054;BME280;23859;50.672;7.164;2023-04-01T19:13:04;59255.28;;;11.24;100.00
38054;BME280;23859;50.672;7.164;2023-04-01T19:18:57;59248.03;;;11.22;100.00
38054;BME280;23859;50.672;7.164;2023-04-01T19:21:43;59259.56;;;11.23;100.00
38054;BME280;23859;50.672;7.164;2023-04-01T19:27:24;59259.03;;;11.30;100.00
38054;BME280;23859;50.672;7.164;2023-04-01T19:30:06;59274.47;;;11.51;100.00
38054;BME280;23859;50.672;7.164;2023-04-01T19:40:54;59262.19;;;11.31;100.00
38054;BME280;23859;50.672;7.164;2023-04-01T19:46:26;59259.88;;;11.26;100.00
38054;BME280;23859;50.672;7.164;2023-04-01T19:52:43;59248.03;;;11.22;100.00
38054;BME280;23859;50.672;7.164;2023-04-01T19:55:14;59257.09;;;11.28;100.00
38054;BME280;23859;50.672;7.164;2023-04-01T19:57:57;59267.41;;;11.39;100.00
38054;BME280;23859;50.672;7.164;2023-04-01T20:00:32;59266.75;;;11.41;100.00
38054;BME280;23859;50.672;7.164;2023-04-01T20:03:05;59269.06;;;11.38;100.00
38054;BME280;23859;50.672;7.164;2023-04-01T20:11:14;59251.19;;;11.23;100.00
38054;BME280;23859;50.672;7.164;2023-04-01T20:16:58;59253.63;;;11.25;100.00
38054;BME280;23859;50.672;7.164;2023-04-01T20:19:45;59255.28;;;11.24;100.00
38054;BME280;23859;50.672;7.164;2023-04-01T20:22:28;59244.47;;;11.13;100.00
38054;BME280;23859;50.672;7.164;2023-04-01T20:24:59;59248.06;;;11.14;100.00
38054;BME280;23859;50.672;7.164;2023-04-01T20:27:33;59241.50;;;11.10;100.00
38054;BME280;23859;50.672;7.164;2023-04-01T20:30:34;59223.13;;;10.94;100.00
38054;BME280;23859;50.672;7.164;2023-04-01T20:33:33;59242.16;;;11.08;100.00
38054;BME280;23859;50.672;7.164;2023-04-01T20:39:33;59236.41;;;11.08;100.00
38054;BME280;23859;50.672;7.164;2023-04-01T20:50:45;59214.94;;;10.83;100.00
38054;BME280;23859;50.672;7.164;2023-04-01T20:56:26;59203.63;;;10.72;100.00
38054;BME280;23859;50.672;7.164;2023-04-01T20:59:35;59193.59;;;10.64;100.00
38054;BME280;23859;50.672;7.164;2023-04-01T21:02:19;59194.91;;;10.68;100.00
38054;BME280;23859;50.672;7.164;2023-04-01T21:07:58;59194.59;;;10.65;100.00
38054;BME280;23859;50.672;7.164;2023-04-01T21:10:41;59201.50;;;10.72;100.00
38054;BME280;23859;50.672;7.164;2023-04-01T21:16:08;59201.16;;;10.69;100.00
38054;BME280;23859;50.672;7.164;2023-04-01T21:19:01;59200.81;;;10.74;100.00